createdAt,value
2022-08-07T00:00:32.913Z,15.80
2022-08-07T00:03:01.445Z,15.80
2022-08-07T00:05:30.766Z,15.70
2022-08-07T00:08:02.036Z,15.60
2022-08-07T00:10:31.496Z,15.50
2022-08-07T00:13:09.632Z,15.60
2022-08-07T00:15:46.676Z,15.60
2022-08-07T00:18:24.151Z,15.50
2022-08-07T00:20:53.816Z,15.50
2022-08-07T00:23:23.515Z,15.40
2022-08-07T00:26:00.091Z,15.40
2022-08-07T00:28:33.384Z,15.40
2022-08-07T00:31:05.916Z,15.30
2022-08-07T00:33:35.458Z,15.30
2022-08-07T00:36:04.534Z,15.20
2022-08-07T00:38:35.908Z,15.20
2022-08-07T00:41:05.229Z,15.20
2022-08-07T00:44:00.279Z,15.20
2022-08-07T00:46:26.179Z,15.10
2022-08-07T00:48:54.236Z,15.10
2022-08-07T00:51:22.754Z,15.10
2022-08-07T00:53:57.295Z,15.20
2022-08-07T00:56:30.168Z,15.10
2022-08-07T00:58:59.406Z,15.10
2022-08-07T01:01:27.607Z,15.10
2022-08-07T01:04:00.335Z,15.10
2022-08-07T01:06:29.427Z,15.00
2022-08-07T01:09:01.136Z,15.00
2022-08-07T01:12:09.181Z,14.90
2022-08-07T01:14:21.212Z,14.90
2022-08-07T01:16:56.883Z,14.90
2022-08-07T01:19:27.606Z,15.00
2022-08-07T01:22:03.765Z,15.00
2022-08-07T01:24:37.367Z,14.80
2022-08-07T01:27:05.959Z,14.80
2022-08-07T01:29:47.932Z,14.70
2022-08-07T01:32:18.989Z,14.70
2022-08-07T01:34:51.159Z,14.60
2022-08-07T01:37:21.060Z,14.60
2022-08-07T01:39:50.454Z,14.70
2022-08-07T01:42:39.456Z,14.50
2022-08-07T01:45:15.787Z,14.50
2022-08-07T01:48:19.278Z,14.30
2022-08-07T01:50:33.553Z,14.30
2022-08-07T01:53:08.521Z,14.20
2022-08-07T01:55:43.331Z,14.20
2022-08-07T01:58:29.113Z,14.20
2022-08-07T02:01:10.073Z,14.20
2022-08-07T02:03:57.539Z,14.10
2022-08-07T02:06:31.590Z,14.10
2022-08-07T02:09:05.120Z,14.10
2022-08-07T02:12:04.305Z,14.10
2022-08-07T02:14:40.282Z,14.20
2022-08-07T02:17:11.202Z,14.10
2022-08-07T02:20:04.182Z,14.00
2022-08-07T02:22:31.914Z,13.90
2022-08-07T02:25:02.565Z,14.00
2022-08-07T02:27:37.036Z,13.90
2022-08-07T02:30:12.438Z,14.00
2022-08-07T02:33:03.811Z,13.90
2022-08-07T02:36:30.821Z,13.90
2022-08-07T02:38:28.239Z,13.80
2022-08-07T02:41:03.969Z,13.80
2022-08-07T02:43:34.642Z,13.70
2022-08-07T02:46:06.931Z,13.70
2022-08-07T02:48:35.507Z,13.60
2022-08-07T02:51:29.259Z,13.60
2022-08-07T02:53:58.916Z,13.60
2022-08-07T02:56:31.750Z,13.60
2022-08-07T02:59:04.988Z,13.60
2022-08-07T03:01:36.478Z,13.70
2022-08-07T03:04:07.613Z,13.70
2022-08-07T03:06:41.339Z,13.60
2022-08-07T03:09:11.605Z,13.70
2022-08-07T03:11:51.857Z,13.70
2022-08-07T03:14:26.100Z,13.60
2022-08-07T03:16:56.391Z,13.60
2022-08-07T03:19:25.628Z,13.60
2022-08-07T03:21:57.732Z,13.60
2022-08-07T03:24:28.121Z,13.50
2022-08-07T03:27:02.153Z,13.50
2022-08-07T03:29:37.433Z,13.50
2022-08-07T03:32:13.353Z,13.40
2022-08-07T03:34:47.577Z,13.40
2022-08-07T03:37:32.585Z,13.40
2022-08-07T03:40:15.913Z,13.40
2022-08-07T03:42:46.306Z,13.30
2022-08-07T03:45:29.391Z,13.30
2022-08-07T03:47:59.873Z,13.30
2022-08-07T03:50:29.251Z,13.20
2022-08-07T03:52:59.412Z,13.30
2022-08-07T03:55:57.526Z,13.20
2022-08-07T03:59:07.478Z,13.10
2022-08-07T04:01:11.098Z,13.10
2022-08-07T04:03:49.741Z,13.10
2022-08-07T04:06:37.553Z,13.10
2022-08-07T04:09:15.359Z,13.10
2022-08-07T04:12:24.570Z,13.10
2022-08-07T04:14:39.036Z,13.10
2022-08-07T04:17:20.518Z,13.00
2022-08-07T04:19:52.327Z,13.00
2022-08-07T04:22:27.414Z,13.00
2022-08-07T04:24:58.440Z,13.00
2022-08-07T04:27:26.949Z,13.00
2022-08-07T04:30:02.027Z,13.10
2022-08-07T04:32:35.188Z,13.10
2022-08-07T04:35:06.040Z,13.20
2022-08-07T04:37:52.892Z,13.10
2022-08-07T04:40:26.662Z,13.10
2022-08-07T04:43:01.618Z,13.10
2022-08-07T04:46:00.762Z,13.10
2022-08-07T04:48:38.187Z,13.10
2022-08-07T04:51:09.494Z,13.10
2022-08-07T04:54:05.129Z,13.10
2022-08-07T04:58:10.641Z,13.10
2022-08-07T05:00:11.122Z,13.20
2022-08-07T05:02:29.167Z,13.20
2022-08-07T05:05:51.680Z,13.30
2022-08-07T05:07:59.418Z,13.20
2022-08-07T05:10:32.506Z,13.30
2022-08-07T05:14:44.943Z,13.20
2022-08-07T05:15:55.599Z,13.20
2022-08-07T05:18:30.399Z,13.30
2022-08-07T05:21:04.006Z,13.40
2022-08-07T05:23:39.561Z,13.50
2022-08-07T05:26:18.745Z,13.60
2022-08-07T05:28:55.725Z,13.60
2022-08-07T05:31:34.946Z,13.60
2022-08-07T05:34:10.917Z,13.70
2022-08-07T05:36:41.717Z,13.90
2022-08-07T05:40:18.070Z,13.90
2022-08-07T05:42:01.251Z,14.10
2022-08-07T05:44:34.792Z,14.40
2022-08-07T05:47:18.192Z,14.70
2022-08-07T05:49:49.851Z,14.90
2022-08-07T05:52:20.055Z,15.00
2022-08-07T05:54:55.302Z,15.10
2022-08-07T05:57:26.530Z,15.20
2022-08-07T05:59:58.963Z,15.70
2022-08-07T06:02:30.825Z,16.00
2022-08-07T06:05:04.515Z,16.20
2022-08-07T06:08:13.236Z,16.10
2022-08-07T06:10:23.829Z,16.20
2022-08-07T06:12:52.513Z,15.70
2022-08-07T06:15:21.830Z,15.50
2022-08-07T06:18:08.320Z,15.60
2022-08-07T06:20:50.339Z,15.80
2022-08-07T06:24:37.285Z,15.80
2022-08-07T06:26:16.157Z,16.30
2022-08-07T06:28:52.761Z,16.80
2022-08-07T06:31:24.143Z,17.10
2022-08-07T06:34:06.957Z,17.10
2022-08-07T06:36:37.943Z,16.90
2022-08-07T06:40:13.220Z,17.00
2022-08-07T06:42:01.567Z,17.20
2022-08-07T06:44:33.888Z,17.40
2022-08-07T06:47:12.360Z,17.30
2022-08-07T06:49:50.931Z,17.40
2022-08-07T06:52:31.502Z,17.40
2022-08-07T06:55:34.339Z,17.60
2022-08-07T06:57:56.889Z,17.70
2022-08-07T07:00:27.410Z,17.70
2022-08-07T07:02:58.261Z,17.60
2022-08-07T07:06:05.750Z,17.80
2022-08-07T07:08:25.602Z,17.90
2022-08-07T07:10:56.960Z,17.90
2022-08-07T07:13:56.580Z,18.10
2022-08-07T07:16:22.863Z,18.20
2022-08-07T07:19:00.430Z,18.30
2022-08-07T07:22:11.475Z,18.50
2022-08-07T07:24:33.143Z,18.70
2022-08-07T07:27:03.689Z,18.80
2022-08-07T07:29:57.100Z,18.70
2022-08-07T07:32:26.734Z,18.90
2022-08-07T07:34:58.899Z,19.20
2022-08-07T07:37:47.180Z,19.40
2022-08-07T07:40:26.242Z,19.50
2022-08-07T07:42:56.540Z,19.60
2022-08-07T07:46:37.764Z,19.90
2022-08-07T07:48:24.055Z,19.90
2022-08-07T07:51:07.940Z,20.10
2022-08-07T07:53:51.954Z,20.40
2022-08-07T07:56:30.080Z,20.60
2022-08-07T07:59:01.684Z,20.90
2022-08-07T08:02:02.468Z,21.00
2022-08-07T08:04:25.647Z,21.20
2022-08-07T08:06:56.196Z,21.40
2022-08-07T08:09:29.151Z,21.70
2022-08-07T08:12:05.207Z,21.80
2022-08-07T08:14:36.127Z,22.00
2022-08-07T08:17:55.782Z,22.20
2022-08-07T08:20:22.896Z,22.30
2022-08-07T08:23:12.808Z,22.70
2022-08-07T08:26:06.818Z,22.60
2022-08-07T08:28:44.970Z,22.80
2022-08-07T08:31:30.391Z,23.20
2022-08-07T08:34:08.710Z,23.50
2022-08-07T08:36:46.136Z,23.20
2022-08-07T08:39:15.311Z,23.40
2022-08-07T08:41:58.695Z,23.20
2022-08-07T08:44:41.232Z,23.70
2022-08-07T08:47:47.258Z,24.10
2022-08-07T08:50:34.777Z,24.30
2022-08-07T08:53:14.363Z,24.40
2022-08-07T08:55:54.913Z,24.60
2022-08-07T08:58:35.367Z,24.60
2022-08-07T09:01:16.178Z,24.60
2022-08-07T09:03:56.718Z,24.80
2022-08-07T09:06:36.727Z,24.40
2022-08-07T09:09:23.642Z,24.80
2022-08-07T09:12:30.681Z,25.10
2022-08-07T09:16:25.929Z,25.10
2022-08-07T09:18:23.546Z,25.10
2022-08-07T09:21:04.964Z,25.00
2022-08-07T09:24:30.646Z,25.20
2022-08-07T09:26:40.686Z,25.30
2022-08-07T09:30:04.214Z,25.50
2022-08-07T09:32:26.548Z,25.80
2022-08-07T09:36:04.048Z,26.00
2022-08-07T09:38:14.929Z,26.10
2022-08-07T09:40:55.358Z,25.60
2022-08-07T09:44:03.280Z,25.90
2022-08-07T09:47:52.329Z,26.30
2022-08-07T09:50:01.778Z,26.50
2022-08-07T09:52:34.387Z,26.70
2022-08-07T09:55:28.790Z,26.50
2022-08-07T09:58:32.155Z,26.50
2022-08-07T10:01:50.971Z,26.40
2022-08-07T10:04:32.776Z,26.40
2022-08-07T10:07:31.615Z,27.00
2022-08-07T10:10:11.944Z,27.10
2022-08-07T10:13:03.586Z,27.20
2022-08-07T10:15:47.884Z,26.80
2022-08-07T10:18:37.649Z,27.00
2022-08-07T10:22:14.755Z,27.30
2022-08-07T10:24:38.115Z,27.20
2022-08-07T10:27:27.834Z,27.40
2022-08-07T10:30:12.157Z,27.30
2022-08-07T10:33:15.370Z,27.30
2022-08-07T10:36:11.221Z,26.60
2022-08-07T10:38:51.439Z,26.30
2022-08-07T10:41:47.008Z,26.80
2022-08-07T10:44:37.886Z,27.20
2022-08-07T10:47:26.926Z,27.60
2022-08-07T10:50:15.405Z,28.00
2022-08-07T10:52:58.178Z,27.30
2022-08-07T10:55:38.707Z,27.00
2022-08-07T10:58:18.065Z,27.00
2022-08-07T11:01:35.746Z,26.70
2022-08-07T11:04:34.855Z,26.70
2022-08-07T11:07:15.028Z,26.90
2022-08-07T11:10:07.624Z,27.50
2022-08-07T11:12:43.540Z,27.70
2022-08-07T11:15:18.701Z,28.20
2022-08-07T11:17:53.255Z,28.40
2022-08-07T11:20:25.523Z,28.00
2022-08-07T11:23:02.594Z,28.20
2022-08-07T11:25:48.209Z,28.50
2022-08-07T11:28:25.025Z,28.70
2022-08-07T11:30:58.948Z,28.90
2022-08-07T11:33:48.678Z,28.30
2022-08-07T11:36:39.764Z,27.60
2022-08-07T11:39:19.561Z,27.60
2022-08-07T11:42:01.851Z,28.40
2022-08-07T11:44:52.600Z,28.90
2022-08-07T11:47:56.025Z,28.80
2022-08-07T11:50:57.861Z,28.70
2022-08-07T11:53:43.328Z,29.10
2022-08-07T11:56:53.188Z,28.80
2022-08-07T12:00:11.499Z,28.70
2022-08-07T12:03:03.813Z,28.50
2022-08-07T12:05:48.978Z,27.50
2022-08-07T12:08:25.903Z,28.30
2022-08-07T12:11:21.799Z,28.40
2022-08-07T12:13:57.634Z,29.00
2022-08-07T12:16:30.824Z,29.10
2022-08-07T12:19:14.676Z,29.00
2022-08-07T12:22:36.250Z,29.00
2022-08-07T12:25:10.416Z,28.80
2022-08-07T12:28:09.116Z,28.00
2022-08-07T12:30:46.918Z,28.40
2022-08-07T12:33:31.064Z,28.40
2022-08-07T12:36:15.104Z,28.70
2022-08-07T12:38:57.039Z,28.80
2022-08-07T12:41:49.098Z,29.10
2022-08-07T12:44:17.558Z,29.50
2022-08-07T12:46:58.777Z,29.20
2022-08-07T12:49:44.174Z,29.40
2022-08-07T12:52:20.738Z,29.30
2022-08-07T12:55:03.904Z,29.30
2022-08-07T12:58:01.141Z,29.30
2022-08-07T13:00:49.922Z,28.80
2022-08-07T13:03:59.197Z,28.80
2022-08-07T13:07:00.789Z,29.10
2022-08-07T13:10:19.994Z,29.40
2022-08-07T13:12:38.890Z,29.00
2022-08-07T13:15:23.688Z,28.90
2022-08-07T13:18:08.642Z,29.50
2022-08-07T13:20:46.450Z,29.80
2022-08-07T13:24:01.927Z,29.30
2022-08-07T13:26:20.304Z,29.10
2022-08-07T13:29:02.886Z,29.20
2022-08-07T13:31:46.259Z,29.30
2022-08-07T13:34:35.771Z,29.20
2022-08-07T13:37:10.639Z,29.60
2022-08-07T13:40:36.579Z,29.80
2022-08-07T13:42:49.665Z,29.90
2022-08-07T13:46:06.821Z,30.00
2022-08-07T13:48:27.902Z,30.10
2022-08-07T13:51:02.608Z,29.90
2022-08-07T13:54:00.064Z,29.90
2022-08-07T13:56:40.468Z,29.80
2022-08-07T13:59:13.443Z,29.60
2022-08-07T14:02:03.433Z,28.90
2022-08-07T14:04:35.678Z,28.40
2022-08-07T14:07:09.131Z,28.10
2022-08-07T14:10:17.623Z,28.60
2022-08-07T14:12:41.588Z,29.00
2022-08-07T14:15:19.284Z,29.20
2022-08-07T14:18:23.857Z,29.20
2022-08-07T14:20:54.675Z,29.00
2022-08-07T14:23:58.864Z,29.10
2022-08-07T14:26:28.220Z,29.10
2022-08-07T14:29:08.460Z,29.20
2022-08-07T14:31:56.529Z,29.30
2022-08-07T14:34:30.777Z,29.20
2022-08-07T14:37:03.302Z,28.40
2022-08-07T14:40:16.565Z,28.40
2022-08-07T14:42:31.561Z,28.30
2022-08-07T14:45:21.532Z,28.40
2022-08-07T14:47:58.889Z,28.60
2022-08-07T14:50:37.538Z,28.80
2022-08-07T14:53:09.826Z,28.90
2022-08-07T14:55:55.621Z,29.00
2022-08-07T14:58:35.244Z,29.00
2022-08-07T15:01:21.600Z,29.00
2022-08-07T15:04:01.211Z,29.10
2022-08-07T15:06:36.217Z,29.00
2022-08-07T15:09:58.333Z,28.90
2022-08-07T15:12:06.813Z,28.90
2022-08-07T15:14:55.874Z,28.90
2022-08-07T15:20:32.693Z,29.00
2022-08-07T15:23:20.424Z,29.00
2022-08-07T15:25:55.913Z,28.80
2022-08-07T15:28:34.737Z,29.00
2022-08-07T15:31:13.058Z,28.80
2022-08-07T15:34:04.262Z,28.70
2022-08-07T15:37:03.911Z,28.70
2022-08-07T15:39:56.388Z,28.80
2022-08-07T15:42:51.837Z,28.40
2022-08-07T15:45:57.239Z,28.40
2022-08-07T15:51:18.678Z,28.30
2022-08-07T15:53:54.691Z,28.20
2022-08-07T15:56:33.522Z,28.20
2022-08-07T15:59:07.439Z,27.80
2022-08-07T16:02:01.820Z,28.20
2022-08-07T16:04:34.603Z,28.20
2022-08-07T16:08:29.131Z,28.10
2022-08-07T16:10:02.831Z,28.30
2022-08-07T16:13:01.032Z,28.40
2022-08-07T16:15:57.257Z,28.50
2022-08-07T16:18:50.078Z,28.10
2022-08-07T16:21:56.960Z,28.00
2022-08-07T16:24:34.683Z,28.20
2022-08-07T16:27:18.160Z,27.70
2022-08-07T16:30:11.923Z,27.70
2022-08-07T16:32:59.352Z,27.50
2022-08-07T16:35:52.086Z,27.40
2022-08-07T16:38:59.930Z,27.70
2022-08-07T16:41:54.328Z,27.60
2022-08-07T16:45:15.264Z,27.70
2022-08-07T16:48:13.660Z,27.80
2022-08-07T16:51:21.863Z,27.70
2022-08-07T16:54:20.649Z,27.60
2022-08-07T16:58:00.872Z,27.60
2022-08-07T17:00:17.382Z,27.60
2022-08-07T17:03:17.162Z,27.40
2022-08-07T17:06:19.514Z,27.20
2022-08-07T17:09:09.174Z,27.20
2022-08-07T17:12:01.234Z,27.10
2022-08-07T17:14:43.141Z,27.00
2022-08-07T17:17:46.701Z,27.00
2022-08-07T17:20:29.909Z,26.90
2022-08-07T17:23:08.809Z,26.80
2022-08-07T17:25:52.701Z,26.70
2022-08-07T17:28:31.198Z,26.70
2022-08-07T17:31:16.009Z,26.60
2022-08-07T17:34:17.890Z,26.50
2022-08-07T17:36:58.022Z,26.40
2022-08-07T17:39:57.810Z,26.50
2022-08-07T17:42:59.543Z,26.30
2022-08-07T17:45:34.923Z,26.10
2022-08-07T17:48:11.214Z,26.10
2022-08-07T17:50:55.627Z,26.00
2022-08-07T17:54:01.667Z,25.90
2022-08-07T17:56:33.645Z,25.90
2022-08-07T17:59:17.031Z,25.70
2022-08-07T18:01:57.079Z,25.70
2022-08-07T18:04:34.587Z,25.60
2022-08-07T18:07:20.063Z,25.60
2022-08-07T18:10:05.818Z,25.60
2022-08-07T18:13:06.761Z,25.40
2022-08-07T18:15:53.520Z,25.40
2022-08-07T18:18:45.211Z,25.30
2022-08-07T18:21:37.088Z,25.30
2022-08-07T18:24:33.585Z,25.20
2022-08-07T18:27:38.503Z,25.10
2022-08-07T18:30:31.033Z,25.10
2022-08-07T18:33:30.677Z,25.00
2022-08-07T18:36:08.435Z,25.00
2022-08-07T18:38:55.558Z,24.90
2022-08-07T18:41:46.274Z,24.90
2022-08-07T18:44:30.409Z,24.80
2022-08-07T18:47:22.684Z,24.60
2022-08-07T18:50:29.844Z,24.50
2022-08-07T18:53:12.611Z,24.50
2022-08-07T18:55:57.057Z,24.40
2022-08-07T18:58:51.163Z,24.30
2022-08-07T19:02:18.709Z,24.20
2022-08-07T19:04:54.495Z,24.10
2022-08-07T19:07:34.807Z,24.10
2022-08-07T19:10:18.172Z,24.00
2022-08-07T19:12:58.164Z,23.80
2022-08-07T19:16:04.981Z,23.80
2022-08-07T19:18:34.646Z,23.60
2022-08-07T19:21:47.913Z,23.60
2022-08-07T19:24:06.203Z,23.50
2022-08-07T19:28:28.703Z,23.50
2022-08-07T19:30:58.674Z,23.40
2022-08-07T19:32:30.606Z,23.40
2022-08-07T19:35:07.616Z,23.30
2022-08-07T19:37:55.287Z,23.00
2022-08-07T19:40:31.846Z,22.40
2022-08-07T19:43:02.599Z,22.30
2022-08-07T19:46:04.917Z,22.20
2022-08-07T19:48:42.142Z,22.10
2022-08-07T19:51:20.592Z,22.10
2022-08-07T19:54:33.178Z,22.20
2022-08-07T19:58:01.620Z,22.10
2022-08-07T19:59:47.149Z,22.00
2022-08-07T20:02:21.033Z,22.00
2022-08-07T20:04:52.026Z,22.10
2022-08-07T20:07:47.257Z,22.10
2022-08-07T20:10:37.166Z,22.00
2022-08-07T20:13:32.904Z,21.90
2022-08-07T20:16:03.927Z,21.80
2022-08-07T20:18:36.500Z,21.80
2022-08-07T20:21:21.594Z,21.70
2022-08-07T20:23:54.728Z,21.70
2022-08-07T20:26:38.731Z,21.50
2022-08-07T20:29:46.623Z,21.40
2022-08-07T20:32:07.217Z,21.40
2022-08-07T20:34:50.788Z,21.40
2022-08-07T20:37:24.333Z,21.40
2022-08-07T20:40:02.829Z,21.40
2022-08-07T20:42:35.433Z,21.30
2022-08-07T20:45:33.396Z,21.20
2022-08-07T20:47:58.587Z,21.20
2022-08-07T20:50:30.607Z,21.00
2022-08-07T20:52:59.592Z,21.00
2022-08-07T20:55:28.572Z,21.00
2022-08-07T20:58:12.041Z,21.00
2022-08-07T21:00:56.066Z,21.00
2022-08-07T21:03:26.353Z,20.90
2022-08-07T21:06:00.805Z,21.00
2022-08-07T21:08:37.211Z,20.90
2022-08-07T21:11:12.000Z,20.80
2022-08-07T21:14:16.821Z,20.60
2022-08-07T21:16:56.548Z,20.60
2022-08-07T21:19:51.278Z,20.60
2022-08-07T21:22:25.551Z,20.50
2022-08-07T21:25:12.343Z,20.50
2022-08-07T21:28:02.102Z,20.40
2022-08-07T21:30:43.895Z,20.30
2022-08-07T21:33:19.112Z,20.30
2022-08-07T21:36:04.328Z,20.10
2022-08-07T21:38:44.748Z,20.10
2022-08-07T21:41:37.781Z,20.00
2022-08-07T21:44:28.469Z,19.90
2022-08-07T21:47:12.305Z,19.80
2022-08-07T21:50:03.058Z,19.80
2022-08-07T21:52:45.863Z,19.70
2022-08-07T21:55:28.362Z,19.60
2022-08-07T21:58:07.315Z,19.50
2022-08-07T22:00:39.855Z,19.60
2022-08-07T22:03:17.282Z,19.50
2022-08-07T22:06:04.853Z,19.50
2022-08-07T22:08:43.209Z,19.30
2022-08-07T22:11:17.651Z,19.40
2022-08-07T22:13:55.165Z,19.30
2022-08-07T22:16:44.881Z,19.10
2022-08-07T22:19:23.868Z,19.10
2022-08-07T22:22:10.720Z,19.00
2022-08-07T22:24:56.357Z,18.90
2022-08-07T22:28:02.907Z,18.80
2022-08-07T22:30:21.882Z,18.80
2022-08-07T22:33:03.761Z,18.70
2022-08-07T22:35:41.021Z,18.70
2022-08-07T22:38:20.389Z,18.80
2022-08-07T22:40:59.814Z,18.70
2022-08-07T22:43:37.340Z,18.60
2022-08-07T22:47:04.369Z,18.60
2022-08-07T22:50:04.100Z,18.60
2022-08-07T22:53:19.839Z,18.60
2022-08-07T22:56:09.173Z,18.60
2022-08-07T22:59:01.269Z,18.60
2022-08-07T23:02:00.566Z,18.60
2022-08-07T23:04:57.874Z,18.50
2022-08-07T23:07:49.366Z,18.30
2022-08-07T23:10:37.328Z,18.30
2022-08-07T23:13:29.599Z,18.20
2022-08-07T23:16:48.400Z,18.20
2022-08-07T23:19:38.738Z,18.10
2022-08-07T23:22:29.408Z,18.10
2022-08-07T23:25:12.533Z,18.00
2022-08-07T23:28:21.792Z,17.90
2022-08-07T23:31:06.948Z,17.90
2022-08-07T23:34:35.633Z,17.90
2022-08-07T23:37:20.449Z,17.90
2022-08-07T23:40:03.986Z,17.90
2022-08-07T23:42:53.099Z,17.90
2022-08-07T23:46:02.221Z,17.90
2022-08-07T23:48:30.411Z,17.90
2022-08-07T23:51:03.162Z,17.80
2022-08-07T23:53:51.374Z,17.80
2022-08-07T23:56:26.864Z,17.70
2022-08-07T23:59:10.944Z,17.70
